createdAt,value
2022-12-17T00:00:16.421Z,100594.06
2022-12-17T00:03:02.090Z,100596.38
2022-12-17T00:05:47.426Z,100596.31
2022-12-17T00:08:33.138Z,100593.19
2022-12-17T00:11:18.647Z,100593.19
2022-12-17T00:14:04.162Z,100594.59
2022-12-17T00:16:49.795Z,100589.88
2022-12-17T00:19:35.327Z,100591.66
2022-12-17T00:22:21.119Z,100589.34
2022-12-17T00:25:06.474Z,100595.41
2022-12-17T00:27:52.047Z,100592.09
2022-12-17T00:30:37.457Z,100584.34
2022-12-17T00:33:23.054Z,100592.53
2022-12-17T00:36:13.521Z,100592.19
2022-12-17T00:38:59.362Z,100588.94
2022-12-17T00:41:45.336Z,100589.72
2022-12-17T00:44:30.745Z,100581.44
2022-12-17T00:47:16.209Z,100582.56
2022-12-17T00:50:01.695Z,100572.63
2022-12-17T00:52:47.294Z,100578.50
2022-12-17T00:55:32.555Z,100568.91
2022-12-17T00:58:18.166Z,100580.66
2022-12-17T01:01:03.631Z,100579.03
2022-12-17T01:03:49.072Z,100582.44
2022-12-17T01:06:34.583Z,100578.84
2022-12-17T01:09:20.063Z,100582.59
2022-12-17T01:12:06.638Z,100594.19
2022-12-17T01:14:52.014Z,100592.59
2022-12-17T01:17:37.315Z,100591.47
2022-12-17T01:20:23.145Z,100590.97
2022-12-17T01:23:08.971Z,100592.59
2022-12-17T01:25:54.615Z,100600.06
2022-12-17T01:28:45.974Z,100586.94
2022-12-17T01:31:35.320Z,100585.81
2022-12-17T01:34:21.102Z,100577.69
2022-12-17T01:37:06.405Z,100590.53
2022-12-17T01:39:51.951Z,100576.06
2022-12-17T01:42:37.199Z,100595.06
2022-12-17T01:45:25.881Z,100588.56
2022-12-17T01:48:17.490Z,100592.91
2022-12-17T01:51:07.527Z,100586.09
2022-12-17T01:53:59.545Z,100581.88
2022-12-17T01:56:45.111Z,100577.81
2022-12-17T01:59:32.704Z,100588.44
2022-12-17T02:02:18.153Z,100595.56
2022-12-17T02:05:03.805Z,100582.59
2022-12-17T02:08:28.295Z,100575.41
2022-12-17T02:11:39.330Z,100581.13
2022-12-17T02:14:24.556Z,100589.28
2022-12-17T02:17:15.403Z,100579.19
2022-12-17T02:20:06.528Z,100586.13
2022-12-17T02:22:56.107Z,100578.69
2022-12-17T02:26:00.786Z,100568.25
2022-12-17T02:28:47.362Z,100571.50
2022-12-17T02:31:35.221Z,100573.78
2022-12-17T02:34:20.918Z,100565.84
2022-12-17T02:37:08.704Z,100562.25
2022-12-17T02:39:56.357Z,100566.00
2022-12-17T02:42:45.413Z,100564.97
2022-12-17T02:45:31.676Z,100563.84
2022-12-17T02:48:19.390Z,100549.31
2022-12-17T02:51:05.245Z,100561.50
2022-12-17T02:53:54.141Z,100556.44
2022-12-17T02:56:41.285Z,100559.66
2022-12-17T02:59:26.622Z,100558.63
2022-12-17T03:02:12.354Z,100565.09
2022-12-17T03:05:10.518Z,100571.19
2022-12-17T03:08:03.158Z,100572.97
2022-12-17T03:10:48.459Z,100578.84
2022-12-17T03:27:26.717Z,100579.22
2022-12-17T03:30:12.328Z,100579.84
2022-12-17T03:32:58.021Z,100579.16
2022-12-17T03:35:43.426Z,100576.31
2022-12-17T03:38:29.912Z,100585.66
2022-12-17T03:41:15.480Z,100573.47
2022-12-17T03:44:01.165Z,100582.91
2022-12-17T03:46:47.063Z,100579.56
2022-12-17T03:49:32.613Z,100578.50
2022-12-17T03:52:18.109Z,100569.38
2022-12-17T03:55:03.957Z,100574.94
2022-12-17T03:57:49.636Z,100571.16
2022-12-17T04:00:35.243Z,100579.84
2022-12-17T04:03:20.993Z,100579.66
2022-12-17T04:06:06.274Z,100571.34
2022-12-17T04:08:52.082Z,100570.69
2022-12-17T04:11:37.575Z,100575.91
2022-12-17T04:14:24.642Z,100569.00
2022-12-17T04:17:09.982Z,100571.34
2022-12-17T04:19:55.586Z,100567.25
2022-12-17T04:22:41.166Z,100583.00
2022-12-17T04:25:26.780Z,100571.16
2022-12-17T04:28:12.428Z,100575.53
2022-12-17T04:30:57.963Z,100572.88
2022-12-17T04:33:43.353Z,100575.47
2022-12-17T04:36:28.420Z,100559.19
2022-12-17T04:39:14.018Z,100580.81
2022-12-17T04:41:59.749Z,100579.13
2022-12-17T04:44:45.285Z,100571.66
2022-12-17T04:47:30.754Z,100568.16
2022-12-17T04:50:16.555Z,100570.25
2022-12-17T04:53:02.001Z,100566.03
2022-12-17T04:55:47.596Z,100566.38
2022-12-17T04:58:33.334Z,100556.66
2022-12-17T05:01:22.163Z,100561.25
2022-12-17T05:04:07.418Z,100552.97
2022-12-17T05:06:53.199Z,100548.59
2022-12-17T05:09:38.821Z,100554.13
2022-12-17T05:12:24.218Z,100553.97
2022-12-17T05:15:09.853Z,100556.31
2022-12-17T05:17:55.759Z,100548.66
2022-12-17T05:20:41.177Z,100552.88
2022-12-17T05:23:27.227Z,100552.50
2022-12-17T05:26:24.933Z,100553.13
2022-12-17T05:29:15.671Z,100549.88
2022-12-17T05:32:01.175Z,100550.13
2022-12-17T05:34:47.064Z,100548.53
2022-12-17T05:37:32.636Z,100543.78
2022-12-17T05:40:18.223Z,100544.19
2022-12-17T05:43:19.758Z,100546.47
2022-12-17T05:46:05.853Z,100557.56
2022-12-17T05:48:52.393Z,100546.94
2022-12-17T05:51:39.355Z,100552.19
2022-12-17T05:54:25.196Z,100556.72
2022-12-17T05:57:11.097Z,100560.16
2022-12-17T05:59:56.674Z,100558.34
2022-12-17T06:02:42.544Z,100564.31
2022-12-17T06:05:28.591Z,100564.31
2022-12-17T06:08:22.123Z,100572.00
2022-12-17T06:11:07.321Z,100569.88
2022-12-17T06:13:53.007Z,100567.25
2022-12-17T06:16:38.685Z,100561.53
2022-12-17T06:19:24.205Z,100562.34
2022-12-17T06:22:09.584Z,100561.41
2022-12-17T06:24:54.990Z,100564.78
2022-12-17T06:27:40.692Z,100567.91
2022-12-17T06:30:26.993Z,100569.31
2022-12-17T06:33:22.689Z,100565.50
2022-12-17T06:36:07.901Z,100566.06
2022-12-17T06:38:53.293Z,100564.03
2022-12-17T06:41:38.904Z,100556.59
2022-12-17T06:44:24.119Z,100561.19
2022-12-17T06:47:09.675Z,100547.97
2022-12-17T06:50:01.091Z,100555.94
2022-12-17T06:52:46.826Z,100561.78
2022-12-17T06:55:32.576Z,100562.59
2022-12-17T06:58:19.332Z,100566.72
2022-12-17T07:01:05.388Z,100566.41
2022-12-17T07:03:50.905Z,100568.22
2022-12-17T07:06:36.677Z,100567.34
2022-12-17T07:09:21.972Z,100573.97
2022-12-17T07:12:07.728Z,100582.91
2022-12-17T07:14:53.099Z,100582.94
2022-12-17T07:17:41.946Z,100590.47
2022-12-17T07:20:28.268Z,100589.31
2022-12-17T07:23:16.623Z,100592.00
2022-12-17T07:26:02.283Z,100589.56
2022-12-17T07:28:48.012Z,100590.28
2022-12-17T07:31:33.476Z,100589.53
2022-12-17T07:34:19.410Z,100581.06
2022-12-17T07:37:04.853Z,100587.59
2022-12-17T07:39:50.525Z,100585.13
2022-12-17T07:42:36.194Z,100588.34
2022-12-17T07:45:21.468Z,100588.41
2022-12-17T07:48:11.231Z,100583.63
2022-12-17T07:50:56.569Z,100582.13
2022-12-17T07:53:49.782Z,100588.84
2022-12-17T07:56:35.735Z,100589.50
2022-12-17T07:59:21.538Z,100594.47
2022-12-17T08:02:07.364Z,100587.63
2022-12-17T08:04:52.782Z,100580.19
2022-12-17T08:07:38.410Z,100584.16
2022-12-17T08:10:24.183Z,100591.91
2022-12-17T08:13:16.926Z,100583.13
2022-12-17T08:16:02.916Z,100580.25
2022-12-17T08:18:48.599Z,100583.66
2022-12-17T08:21:33.971Z,100579.63
2022-12-17T08:24:24.140Z,100583.88
2022-12-17T08:27:09.943Z,100579.31
2022-12-17T08:29:55.424Z,100572.38
2022-12-17T08:32:41.026Z,100579.66
2022-12-17T08:35:27.225Z,100574.00
2022-12-17T08:38:12.740Z,100573.50
2022-12-17T08:40:58.114Z,100571.34
2022-12-17T08:43:43.635Z,100569.47
2022-12-17T08:46:29.514Z,100564.16
2022-12-17T08:49:14.956Z,100574.94
2022-12-17T08:52:00.239Z,100570.41
2022-12-17T08:54:45.960Z,100563.81
2022-12-17T08:57:32.368Z,100552.88
2022-12-17T09:00:18.622Z,100548.63
2022-12-17T09:03:04.586Z,100558.09
2022-12-17T09:05:49.901Z,100561.34
2022-12-17T09:08:35.412Z,100552.19
2022-12-17T09:11:21.098Z,100545.22
2022-12-17T09:14:06.246Z,100534.63
2022-12-17T09:16:52.025Z,100533.53
2022-12-17T09:19:37.524Z,100538.78
2022-12-17T09:22:23.110Z,100542.00
2022-12-17T09:25:08.410Z,100534.72
2022-12-17T09:27:53.849Z,100540.19
2022-12-17T09:30:39.384Z,100542.88
2022-12-17T09:33:24.935Z,100526.41
2022-12-17T09:36:10.612Z,100519.59
2022-12-17T09:39:15.897Z,100524.72
2022-12-17T09:42:21.274Z,100511.81
2022-12-17T09:45:27.116Z,100512.66
2022-12-17T09:48:32.087Z,100504.22
2022-12-17T09:51:18.461Z,100510.56
2022-12-17T09:54:07.893Z,100504.16
2022-12-17T09:56:55.076Z,100510.94
2022-12-17T09:59:46.260Z,100504.13
2022-12-17T10:02:49.124Z,100497.34
2022-12-17T10:05:47.857Z,100506.09
2022-12-17T10:08:37.014Z,100508.56
2022-12-17T10:11:34.594Z,100523.81
2022-12-17T10:14:41.686Z,100514.19
2022-12-17T10:17:38.430Z,100506.06
2022-12-17T10:20:51.442Z,100522.00
2022-12-17T10:23:47.628Z,100521.50
2022-12-17T10:26:38.864Z,100521.84
2022-12-17T10:29:30.286Z,100518.22
2022-12-17T10:32:45.194Z,100534.75
2022-12-17T10:35:39.894Z,100544.31
2022-12-17T10:38:48.460Z,100539.13
2022-12-17T10:41:48.434Z,100533.56
2022-12-17T10:44:53.497Z,100519.34
2022-12-17T10:47:41.055Z,100513.75
2022-12-17T10:50:41.610Z,100539.59
2022-12-17T10:53:42.918Z,100559.25
2022-12-17T10:56:41.363Z,100556.25
2022-12-17T10:59:54.588Z,100556.41
2022-12-17T11:02:45.805Z,100575.13
2022-12-17T11:05:34.206Z,100569.25
2022-12-17T11:08:21.597Z,100570.47
2022-12-17T11:11:07.701Z,100562.06
2022-12-17T11:13:58.406Z,100564.09
2022-12-17T11:16:52.796Z,100557.63
2022-12-17T11:19:51.145Z,100551.84
2022-12-17T11:22:45.361Z,100549.56
2022-12-17T11:26:17.440Z,100563.28
2022-12-17T11:29:03.389Z,100554.44
2022-12-17T11:32:17.104Z,100548.38
2022-12-17T11:35:21.645Z,100535.72
2022-12-17T11:38:25.724Z,100522.66
2022-12-17T11:41:23.102Z,100508.53
2022-12-17T11:44:35.033Z,100529.50
2022-12-17T11:47:36.584Z,100523.88
2022-12-17T11:50:46.930Z,100537.38
2022-12-17T11:53:35.232Z,100540.44
2022-12-17T11:56:34.859Z,100538.72
2022-12-17T11:59:47.937Z,100542.13
2022-12-17T12:02:51.574Z,100545.63
2022-12-17T12:05:56.990Z,100559.50
2022-12-17T12:08:46.930Z,100559.22
2022-12-17T12:11:56.588Z,100566.41
2022-12-17T12:15:00.862Z,100568.47
2022-12-17T12:18:21.682Z,100570.66
2022-12-17T12:21:22.049Z,100586.59
2022-12-17T12:24:22.439Z,100602.16
2022-12-17T12:27:40.767Z,100608.25
2022-12-17T12:30:39.299Z,100597.47
2022-12-17T12:33:49.439Z,100595.09
2022-12-17T12:36:37.155Z,100601.59
2022-12-17T12:39:24.300Z,100604.94
2022-12-17T12:42:12.417Z,100610.63
2022-12-17T12:45:26.191Z,100615.09
2022-12-17T12:48:19.165Z,100612.53
2022-12-17T12:51:11.001Z,100617.66
2022-12-17T12:53:56.470Z,100621.72
2022-12-17T12:56:52.882Z,100626.47
2022-12-17T13:00:07.627Z,100626.06
2022-12-17T13:02:53.585Z,100636.13
2022-12-17T13:05:35.225Z,100638.06
2022-12-17T13:08:24.455Z,100645.47
2022-12-17T13:10:53.653Z,100657.50
2022-12-17T13:13:23.362Z,100661.13
2022-12-17T13:15:57.509Z,100660.84
2022-12-17T13:18:35.430Z,100671.03
2022-12-17T13:21:25.119Z,100676.25
2022-12-17T13:23:52.146Z,100680.75
2022-12-17T13:26:39.225Z,100678.03
2022-12-17T13:29:36.127Z,100693.09
2022-12-17T13:32:24.153Z,100702.13
2022-12-17T13:34:53.566Z,100709.47
2022-12-17T13:37:44.635Z,100715.69
2022-12-17T13:40:34.267Z,100731.69
2022-12-17T13:43:02.315Z,100733.03
2022-12-17T13:45:39.095Z,100748.06
2022-12-17T13:48:06.239Z,100740.88
2022-12-17T13:50:34.681Z,100745.00
2022-12-17T13:53:13.148Z,100746.56
2022-12-17T13:55:40.724Z,100746.84
2022-12-17T13:58:39.118Z,100751.28
2022-12-17T14:01:07.416Z,100760.22
2022-12-17T14:04:04.253Z,100757.34
2022-12-17T14:06:23.977Z,100775.19
2022-12-17T14:08:54.218Z,100790.44
2022-12-17T14:11:40.017Z,100779.78
2022-12-17T14:14:36.533Z,100790.50
2022-12-17T14:17:03.944Z,100793.56
2022-12-17T14:19:33.869Z,100786.88
2022-12-17T14:22:01.501Z,100791.09
2022-12-17T14:24:29.671Z,100800.75
2022-12-17T14:26:59.933Z,100792.03
2022-12-17T14:29:29.722Z,100790.66
2022-12-17T14:32:02.176Z,100788.13
2022-12-17T14:34:40.093Z,100781.09
2022-12-17T14:37:25.713Z,100775.16
2022-12-17T14:39:58.481Z,100779.53
2022-12-17T14:42:26.480Z,100786.34
2022-12-17T14:45:02.316Z,100793.69
2022-12-17T14:47:34.300Z,100795.09
2022-12-17T14:50:08.574Z,100786.59
2022-12-17T14:52:48.026Z,100786.25
2022-12-17T14:55:44.140Z,100785.09
2022-12-17T14:58:14.042Z,100779.16
2022-12-17T15:00:44.641Z,100780.50
2022-12-17T15:03:19.407Z,100773.91
2022-12-17T15:05:52.899Z,100776.94
2022-12-17T15:08:20.791Z,100770.78
2022-12-17T15:10:47.885Z,100773.22
2022-12-17T15:13:14.722Z,100771.59
2022-12-17T15:15:41.737Z,100784.91
2022-12-17T15:28:58.071Z,100776.94
2022-12-17T15:31:26.840Z,100784.59
2022-12-17T15:33:59.228Z,100780.19
2022-12-17T15:36:26.162Z,100784.06
2022-12-17T15:38:53.155Z,100784.41
2022-12-17T15:41:38.932Z,100783.59
2022-12-17T15:44:05.757Z,100768.53
2022-12-17T15:46:33.553Z,100772.13
2022-12-17T15:49:00.469Z,100775.03
2022-12-17T15:51:27.359Z,100779.53
2022-12-17T15:53:54.164Z,100784.59
2022-12-17T15:56:23.925Z,100784.59
2022-12-17T15:58:51.014Z,100780.31
2022-12-17T16:01:18.840Z,100788.53
2022-12-17T16:03:45.911Z,100782.72
2022-12-17T16:06:13.093Z,100777.53
2022-12-17T16:08:40.617Z,100785.38
2022-12-17T16:11:11.821Z,100785.81
2022-12-17T16:13:39.660Z,100790.81
2022-12-17T16:16:07.787Z,100799.47
2022-12-17T16:18:36.298Z,100801.91
2022-12-17T16:21:08.334Z,100813.47
2022-12-17T16:23:35.507Z,100813.47
2022-12-17T16:26:04.427Z,100803.41
2022-12-17T16:28:31.992Z,100809.59
2022-12-17T16:31:07.299Z,100828.78
2022-12-17T16:33:36.145Z,100829.84
2022-12-17T16:36:04.068Z,100826.72
2022-12-17T16:38:31.071Z,100826.91
2022-12-17T16:40:59.859Z,100838.94
2022-12-17T16:43:28.612Z,100837.13
2022-12-17T16:45:55.531Z,100849.03
2022-12-17T16:48:22.875Z,100855.75
2022-12-17T16:50:51.173Z,100861.66
2022-12-17T16:53:19.285Z,100863.38
2022-12-17T16:55:48.089Z,100856.69
2022-12-17T16:58:18.654Z,100859.81
2022-12-17T17:00:46.430Z,100856.81
2022-12-17T17:03:13.762Z,100869.09
2022-12-17T17:05:40.794Z,100867.81
2022-12-17T17:08:07.736Z,100864.63
2022-12-17T17:10:36.912Z,100874.59
2022-12-17T17:13:04.387Z,100887.97
2022-12-17T17:15:31.383Z,100888.25
2022-12-17T17:18:01.888Z,100899.00
2022-12-17T17:20:32.532Z,100901.97
2022-12-17T17:23:00.146Z,100917.63
2022-12-17T17:25:43.881Z,100903.88
2022-12-17T17:28:14.014Z,100904.91
2022-12-17T17:30:40.898Z,100921.78
2022-12-17T17:33:07.747Z,100917.63
2022-12-17T17:35:34.587Z,100914.53
2022-12-17T17:38:01.485Z,100911.88
2022-12-17T17:40:28.345Z,100911.88
2022-12-17T17:42:55.204Z,100917.06
2022-12-17T17:45:22.039Z,100913.53
2022-12-17T17:47:48.933Z,100922.09
2022-12-17T17:50:15.940Z,100921.41
2022-12-17T17:52:42.780Z,100927.50
2022-12-17T17:55:09.784Z,100924.09
2022-12-17T17:57:36.654Z,100923.97
2022-12-17T18:00:04.557Z,100924.16
2022-12-17T18:02:32.354Z,100934.47
2022-12-17T18:04:59.406Z,100926.97
2022-12-17T18:07:27.263Z,100930.59
2022-12-17T18:09:54.961Z,100934.38
2022-12-17T18:12:40.346Z,100939.75
2022-12-17T18:15:16.728Z,100936.16
2022-12-17T18:17:51.093Z,100937.44
2022-12-17T18:20:18.540Z,100954.69
2022-12-17T18:22:46.277Z,100948.66
2022-12-17T18:25:14.583Z,100941.19
2022-12-17T18:27:41.561Z,100943.47
2022-12-17T18:30:09.044Z,100944.84
2022-12-17T18:32:35.964Z,100946.66
2022-12-17T18:35:02.903Z,100947.81
2022-12-17T18:37:29.763Z,100954.50
2022-12-17T18:39:56.654Z,100957.47
2022-12-17T18:42:41.972Z,100969.72
2022-12-17T18:45:09.232Z,100966.00
2022-12-17T18:47:36.129Z,100956.50
2022-12-17T18:50:03.094Z,100959.94
2022-12-17T18:52:29.919Z,100961.25
2022-12-17T18:54:56.734Z,100977.06
2022-12-17T18:57:23.604Z,100975.09
2022-12-17T18:59:50.452Z,100964.31
2022-12-17T19:02:17.633Z,100962.69
2022-12-17T19:04:44.601Z,100957.94
2022-12-17T19:07:11.583Z,100958.09
2022-12-17T19:09:40.457Z,100966.13
2022-12-17T19:12:09.567Z,100979.13
2022-12-17T19:14:36.900Z,100994.28
2022-12-17T19:17:05.185Z,100999.69
2022-12-17T19:19:32.904Z,101000.19
2022-12-17T19:22:00.468Z,101012.59
2022-12-17T19:24:27.523Z,101016.06
2022-12-17T19:26:54.869Z,101017.34
2022-12-17T19:29:22.286Z,101027.59
2022-12-17T19:31:49.422Z,101026.00
2022-12-17T19:34:18.054Z,101025.34
2022-12-17T19:36:45.646Z,101023.88
2022-12-17T19:39:15.230Z,101024.88
2022-12-17T19:41:42.380Z,101035.78
2022-12-17T19:44:14.789Z,101027.16
2022-12-17T19:46:42.486Z,101015.59
2022-12-17T19:49:13.465Z,101008.59
2022-12-17T19:51:43.037Z,101003.88
2022-12-17T19:54:12.454Z,101005.81
2022-12-17T19:56:39.511Z,101008.28
2022-12-17T19:59:07.680Z,101025.06
2022-12-17T20:01:37.475Z,101038.59
2022-12-17T20:04:05.581Z,101032.22
2022-12-17T20:06:34.794Z,101036.59
2022-12-17T20:09:04.581Z,101045.56
2022-12-17T20:11:35.039Z,101046.56
2022-12-17T20:14:05.160Z,101054.88
2022-12-17T20:16:37.865Z,101059.44
2022-12-17T20:19:11.517Z,101058.28
2022-12-17T20:21:38.771Z,101062.69
2022-12-17T20:24:06.255Z,101063.03
2022-12-17T20:26:33.094Z,101077.03
2022-12-17T20:29:00.679Z,101070.00
2022-12-17T20:31:28.127Z,101067.09
2022-12-17T20:33:55.471Z,101073.59
2022-12-17T20:36:23.296Z,101088.63
2022-12-17T20:38:50.275Z,101088.63
2022-12-17T20:41:23.356Z,101084.22
2022-12-17T20:43:50.869Z,101099.03
2022-12-17T20:46:19.339Z,101112.22
2022-12-17T20:48:47.188Z,101116.31
2022-12-17T20:51:17.071Z,101115.97
2022-12-17T20:53:44.926Z,101116.13
2022-12-17T20:56:15.053Z,101120.38
2022-12-17T20:58:43.073Z,101118.91
2022-12-17T21:01:12.027Z,101123.31
2022-12-17T21:03:39.645Z,101121.69
2022-12-17T21:06:09.624Z,101121.34
2022-12-17T21:08:37.470Z,101118.72
2022-12-17T21:11:05.898Z,101126.06
2022-12-17T21:13:32.965Z,101127.88
2022-12-17T21:16:02.506Z,101145.97
2022-12-17T21:18:30.946Z,101141.56
2022-12-17T21:21:11.173Z,101137.97
2022-12-17T21:23:39.119Z,101147.09
2022-12-17T21:26:13.332Z,101150.97
2022-12-17T21:28:42.453Z,101156.50
2022-12-17T21:31:32.094Z,101149.81
2022-12-17T21:34:01.662Z,101164.00
2022-12-17T21:36:31.298Z,101176.25
2022-12-17T21:38:59.353Z,101169.38
2022-12-17T21:41:29.382Z,101169.69
2022-12-17T21:44:02.589Z,101161.22
2022-12-17T21:46:30.372Z,101159.25
2022-12-17T21:48:59.070Z,101155.66
2022-12-17T21:51:26.782Z,101149.75
2022-12-17T21:53:58.773Z,101153.16
2022-12-17T21:56:26.568Z,101158.03
2022-12-17T21:59:01.198Z,101159.84
2022-12-17T22:01:34.722Z,101162.00
2022-12-17T22:04:04.305Z,101158.88
2022-12-17T22:06:35.137Z,101164.56
2022-12-17T22:09:16.878Z,101166.00
2022-12-17T22:12:15.356Z,101164.50
2022-12-17T22:14:42.343Z,101165.47
2022-12-17T22:17:09.202Z,101156.19
2022-12-17T22:19:36.092Z,101155.03
2022-12-17T22:22:03.006Z,101147.72
2022-12-17T22:24:30.221Z,101151.91
2022-12-17T22:27:03.276Z,101143.13
2022-12-17T22:29:48.671Z,101146.88
2022-12-17T22:32:44.907Z,101150.72
2022-12-17T22:36:25.890Z,101160.47
2022-12-17T22:43:30.922Z,101164.38
2022-12-17T22:44:20.589Z,101155.25
2022-12-17T22:44:49.752Z,101172.78
2022-12-17T22:46:20.117Z,101180.56
2022-12-17T22:48:47.321Z,101185.94
2022-12-17T22:51:20.284Z,101193.75
2022-12-17T22:53:56.038Z,101199.28
2022-12-17T22:56:37.241Z,101198.75
2022-12-17T22:59:16.734Z,101205.00
2022-12-17T23:01:44.399Z,101217.88
2022-12-17T23:04:13.871Z,101225.50
2022-12-17T23:06:41.073Z,101228.25
2022-12-17T23:09:07.933Z,101240.69
2022-12-17T23:11:34.914Z,101236.25
2022-12-17T23:14:01.917Z,101239.75
2022-12-17T23:16:28.949Z,101243.84
2022-12-17T23:18:55.913Z,101253.75
2022-12-17T23:21:25.402Z,101251.31
2022-12-17T23:23:53.861Z,101255.53
2022-12-17T23:26:23.780Z,101261.06
2022-12-17T23:28:58.099Z,101256.16
2022-12-17T23:31:26.061Z,101267.31
2022-12-17T23:33:53.229Z,101259.44
2022-12-17T23:36:22.062Z,101269.88
2022-12-17T23:38:50.465Z,101270.59
2022-12-17T23:41:20.283Z,101268.00
2022-12-17T23:43:48.460Z,101267.19
2022-12-17T23:46:17.307Z,101266.47
2022-12-17T23:48:46.531Z,101293.72
2022-12-17T23:51:15.661Z,101306.19
2022-12-17T23:53:43.656Z,101319.38
2022-12-17T23:56:22.305Z,101317.34
2022-12-17T23:58:54.407Z,101316.13
